sensor_id;sensor_type;location;lat;lon;timestamp;temperature;humidity
67799;SHT30;54596;43.216;27.904;2023-07-24T00:01:30;22.23;87.04
67799;SHT30;54596;43.216;27.904;2023-07-24T00:03:55;22.09;86.93
67799;SHT30;54596;43.216;27.904;2023-07-24T00:06:21;22.13;86.74
67799;SHT30;54596;43.216;27.904;2023-07-24T00:08:47;22.08;86.72
67799;SHT30;54596;43.216;27.904;2023-07-24T00:11:12;22.08;86.83
67799;SHT30;54596;43.216;27.904;2023-07-24T00:13:37;22.05;86.86
67799;SHT30;54596;43.216;27.904;2023-07-24T00:16:08;22.02;86.90
67799;SHT30;54596;43.216;27.904;2023-07-24T00:18:33;22.02;86.85
67799;SHT30;54596;43.216;27.904;2023-07-24T00:20:59;22.00;86.90
67799;SHT30;54596;43.216;27.904;2023-07-24T00:23:24;21.99;87.04
67799;SHT30;54596;43.216;27.904;2023-07-24T00:25:50;21.99;87.12
67799;SHT30;54596;43.216;27.904;2023-07-24T00:28:15;21.96;87.15
67799;SHT30;54596;43.216;27.904;2023-07-24T00:30:42;21.96;87.22
67799;SHT30;54596;43.216;27.904;2023-07-24T00:33:07;21.93;87.29
67799;SHT30;54596;43.216;27.904;2023-07-24T00:35:33;21.92;87.32
67799;SHT30;54596;43.216;27.904;2023-07-24T00:37:58;21.88;87.45
67799;SHT30;54596;43.216;27.904;2023-07-24T00:40:24;21.73;87.99
67799;SHT30;54596;43.216;27.904;2023-07-24T00:42:49;21.82;87.82
67799;SHT30;54596;43.216;27.904;2023-07-24T00:45:15;21.69;88.15
67799;SHT30;54596;43.216;27.904;2023-07-24T00:47:42;21.68;88.26
67799;SHT30;54596;43.216;27.904;2023-07-24T00:50:08;21.68;88.31
67799;SHT30;54596;43.216;27.904;2023-07-24T00:52:34;21.68;88.40
67799;SHT30;54596;43.216;27.904;2023-07-24T00:55:00;21.67;88.43
67799;SHT30;54596;43.216;27.904;2023-07-24T00:57:26;21.67;88.38
67799;SHT30;54596;43.216;27.904;2023-07-24T00:59:51;21.68;88.37
67799;SHT30;54596;43.216;27.904;2023-07-24T01:02:17;21.65;88.33
67799;SHT30;54596;43.216;27.904;2023-07-24T01:04:42;21.59;88.44
67799;SHT30;54596;43.216;27.904;2023-07-24T01:07:08;21.53;88.46
67799;SHT30;54596;43.216;27.904;2023-07-24T01:09:34;21.48;88.57
67799;SHT30;54596;43.216;27.904;2023-07-24T01:12:22;21.43;88.62
67799;SHT30;54596;43.216;27.904;2023-07-24T01:15:13;21.46;88.61
67799;SHT30;54596;43.216;27.904;2023-07-24T01:17:45;21.43;88.73
67799;SHT30;54596;43.216;27.904;2023-07-24T01:20:15;21.46;88.64
67799;SHT30;54596;43.216;27.904;2023-07-24T01:26:01;21.48;88.54
67799;SHT30;54596;43.216;27.904;2023-07-24T01:28:30;21.46;88.57
67799;SHT30;54596;43.216;27.904;2023-07-24T01:30:56;21.46;88.51
67799;SHT30;54596;43.216;27.904;2023-07-24T01:33:23;21.46;88.54
67799;SHT30;54596;43.216;27.904;2023-07-24T01:35:53;21.46;88.35
67799;SHT30;54596;43.216;27.904;2023-07-24T01:38:19;21.44;88.26
67799;SHT30;54596;43.216;27.904;2023-07-24T01:40:45;21.43;88.31
67799;SHT30;54596;43.216;27.904;2023-07-24T01:43:11;21.41;88.37
67799;SHT30;54596;43.216;27.904;2023-07-24T01:45:36;21.44;88.30
67799;SHT30;54596;43.216;27.904;2023-07-24T01:48:05;21.41;88.33
67799;SHT30;54596;43.216;27.904;2023-07-24T01:50:31;21.41;88.25
67799;SHT30;54596;43.216;27.904;2023-07-24T01:52:57;21.40;88.20
67799;SHT30;54596;43.216;27.904;2023-07-24T01:55:22;21.37;88.20
67799;SHT30;54596;43.216;27.904;2023-07-24T01:57:48;21.33;88.09
67799;SHT30;54596;43.216;27.904;2023-07-24T02:00:13;21.37;87.99
67799;SHT30;54596;43.216;27.904;2023-07-24T02:02:39;21.39;87.90
67799;SHT30;54596;43.216;27.904;2023-07-24T02:05:04;21.36;88.00
67799;SHT30;54596;43.216;27.904;2023-07-24T02:07:30;21.23;88.13
67799;SHT30;54596;43.216;27.904;2023-07-24T02:09:56;21.24;88.21
67799;SHT30;54596;43.216;27.904;2023-07-24T02:12:21;21.20;88.17
67799;SHT30;54596;43.216;27.904;2023-07-24T02:14:47;21.23;88.17
67799;SHT30;54596;43.216;27.904;2023-07-24T02:17:15;21.19;88.34
67799;SHT30;54596;43.216;27.904;2023-07-24T02:19:41;21.16;88.39
67799;SHT30;54596;43.216;27.904;2023-07-24T02:22:06;21.20;88.34
67799;SHT30;54596;43.216;27.904;2023-07-24T02:24:32;21.19;88.37
67799;SHT30;54596;43.216;27.904;2023-07-24T02:26:57;21.14;88.34
67799;SHT30;54596;43.216;27.904;2023-07-24T02:29:23;21.13;88.41
67799;SHT30;54596;43.216;27.904;2023-07-24T02:31:50;21.12;88.39
67799;SHT30;54596;43.216;27.904;2023-07-24T02:34:15;21.07;88.42
67799;SHT30;54596;43.216;27.904;2023-07-24T02:36:41;21.05;88.63
67799;SHT30;54596;43.216;27.904;2023-07-24T02:39:07;21.05;88.71
67799;SHT30;54596;43.216;27.904;2023-07-24T02:41:32;21.06;88.67
67799;SHT30;54596;43.216;27.904;2023-07-24T02:43:58;21.05;88.68
67799;SHT30;54596;43.216;27.904;2023-07-24T02:46:23;20.99;88.80
67799;SHT30;54596;43.216;27.904;2023-07-24T02:48:50;20.86;89.00
67799;SHT30;54596;43.216;27.904;2023-07-24T02:51:16;20.92;88.84
67799;SHT30;54596;43.216;27.904;2023-07-24T02:53:41;20.95;88.74
67799;SHT30;54596;43.216;27.904;2023-07-24T02:56:07;20.94;88.85
67799;SHT30;54596;43.216;27.904;2023-07-24T02:58:32;20.96;88.74
67799;SHT30;54596;43.216;27.904;2023-07-24T03:01:05;20.99;88.58
67799;SHT30;54596;43.216;27.904;2023-07-24T03:03:32;21.00;88.70
67799;SHT30;54596;43.216;27.904;2023-07-24T03:05:57;21.00;88.69
67799;SHT30;54596;43.216;27.904;2023-07-24T03:08:23;20.95;88.66
67799;SHT30;54596;43.216;27.904;2023-07-24T03:10:48;20.96;88.76
67799;SHT30;54596;43.216;27.904;2023-07-24T03:13:14;20.88;88.90
67799;SHT30;54596;43.216;27.904;2023-07-24T03:15:39;20.89;88.97
67799;SHT30;54596;43.216;27.904;2023-07-24T03:18:05;20.91;88.96
67799;SHT30;54596;43.216;27.904;2023-07-24T03:20:30;20.92;88.95
67799;SHT30;54596;43.216;27.904;2023-07-24T03:22:56;20.91;88.99
67799;SHT30;54596;43.216;27.904;2023-07-24T03:25:21;20.88;89.02
67799;SHT30;54596;43.216;27.904;2023-07-24T03:27:47;20.75;89.29
67799;SHT30;54596;43.216;27.904;2023-07-24T03:30:13;20.85;89.11
67799;SHT30;54596;43.216;27.904;2023-07-24T03:32:38;20.88;89.18
67799;SHT30;54596;43.216;27.904;2023-07-24T03:35:05;20.95;88.93
67799;SHT30;54596;43.216;27.904;2023-07-24T03:37:31;20.99;88.87
67799;SHT30;54596;43.216;27.904;2023-07-24T03:39:56;21.05;88.70
67799;SHT30;54596;43.216;27.904;2023-07-24T03:42:30;21.13;88.64
67799;SHT30;54596;43.216;27.904;2023-07-24T03:44:56;21.16;88.54
67799;SHT30;54596;43.216;27.904;2023-07-24T03:47:22;21.19;88.42
67799;SHT30;54596;43.216;27.904;2023-07-24T03:49:48;21.24;88.25
67799;SHT30;54596;43.216;27.904;2023-07-24T03:52:14;21.29;88.35
67799;SHT30;54596;43.216;27.904;2023-07-24T03:54:39;21.37;88.20
67799;SHT30;54596;43.216;27.904;2023-07-24T03:57:05;21.41;88.15
67799;SHT30;54596;43.216;27.904;2023-07-24T03:59:31;21.51;87.95
67799;SHT30;54596;43.216;27.904;2023-07-24T04:01:57;21.74;87.50
67799;SHT30;54596;43.216;27.904;2023-07-24T04:04:23;21.81;87.24
67799;SHT30;54596;43.216;27.904;2023-07-24T04:06:48;21.78;87.16
67799;SHT30;54596;43.216;27.904;2023-07-24T04:09:14;21.78;87.08
67799;SHT30;54596;43.216;27.904;2023-07-24T04:11:44;22.13;86.14
67799;SHT30;54596;43.216;27.904;2023-07-24T04:14:09;21.93;86.79
67799;SHT30;54596;43.216;27.904;2023-07-24T04:16:35;21.93;86.83
67799;SHT30;54596;43.216;27.904;2023-07-24T04:19:01;21.92;87.11
67799;SHT30;54596;43.216;27.904;2023-07-24T04:21:26;21.91;87.12
67799;SHT30;54596;43.216;27.904;2023-07-24T04:23:52;21.88;87.14
67799;SHT30;54596;43.216;27.904;2023-07-24T04:26:17;21.81;87.21
67799;SHT30;54596;43.216;27.904;2023-07-24T04:28:43;21.91;87.06
67799;SHT30;54596;43.216;27.904;2023-07-24T04:31:08;21.99;86.85
67799;SHT30;54596;43.216;27.904;2023-07-24T04:33:34;21.98;86.73
67799;SHT30;54596;43.216;27.904;2023-07-24T04:35:59;22.00;86.56
67799;SHT30;54596;43.216;27.904;2023-07-24T04:38:26;21.98;86.76
67799;SHT30;54596;43.216;27.904;2023-07-24T04:40:51;22.10;86.71
67799;SHT30;54596;43.216;27.904;2023-07-24T04:43:17;22.19;86.44
67799;SHT30;54596;43.216;27.904;2023-07-24T04:45:42;22.32;86.39
67799;SHT30;54596;43.216;27.904;2023-07-24T04:48:08;22.58;86.02
67799;SHT30;54596;43.216;27.904;2023-07-24T04:50:33;22.69;85.48
67799;SHT30;54596;43.216;27.904;2023-07-24T04:52:59;22.75;85.67
67799;SHT30;54596;43.216;27.904;2023-07-24T04:55:24;22.81;85.34
67799;SHT30;54596;43.216;27.904;2023-07-24T04:57:50;22.92;85.21
67799;SHT30;54596;43.216;27.904;2023-07-24T05:00:16;23.06;84.88
67799;SHT30;54596;43.216;27.904;2023-07-24T05:02:41;23.15;84.75
67799;SHT30;54596;43.216;27.904;2023-07-24T05:05:07;23.22;84.54
67799;SHT30;54596;43.216;27.904;2023-07-24T05:07:33;23.24;84.64
67799;SHT30;54596;43.216;27.904;2023-07-24T05:09:59;23.31;84.55
67799;SHT30;54596;43.216;27.904;2023-07-24T05:12:24;23.43;84.31
67799;SHT30;54596;43.216;27.904;2023-07-24T05:14:50;23.62;83.88
67799;SHT30;54596;43.216;27.904;2023-07-24T05:17:15;23.78;83.64
67799;SHT30;54596;43.216;27.904;2023-07-24T05:19:41;24.14;82.82
67799;SHT30;54596;43.216;27.904;2023-07-24T05:22:06;24.19;82.76
67799;SHT30;54596;43.216;27.904;2023-07-24T05:24:33;24.33;82.58
67799;SHT30;54596;43.216;27.904;2023-07-24T05:26:58;24.53;82.27
67799;SHT30;54596;43.216;27.904;2023-07-24T05:29:24;24.79;81.73
67799;SHT30;54596;43.216;27.904;2023-07-24T05:31:49;25.05;81.06
67799;SHT30;54596;43.216;27.904;2023-07-24T05:34:14;25.35;80.19
67799;SHT30;54596;43.216;27.904;2023-07-24T05:36:40;25.88;79.32
67799;SHT30;54596;43.216;27.904;2023-07-24T05:39:06;27.31;75.58
67799;SHT30;54596;43.216;27.904;2023-07-24T05:41:32;28.07;73.48
67799;SHT30;54596;43.216;27.904;2023-07-24T05:43:57;29.80;69.37
67799;SHT30;54596;43.216;27.904;2023-07-24T05:46:23;32.25;63.82
67799;SHT30;54596;43.216;27.904;2023-07-24T05:48:48;33.68;60.03
67799;SHT30;54596;43.216;27.904;2023-07-24T05:51:14;34.47;58.61
67799;SHT30;54596;43.216;27.904;2023-07-24T05:53:39;34.92;57.21
67799;SHT30;54596;43.216;27.904;2023-07-24T05:56:05;35.04;57.22
67799;SHT30;54596;43.216;27.904;2023-07-24T05:58:30;35.25;56.76
67799;SHT30;54596;43.216;27.904;2023-07-24T06:00:56;35.55;55.95
67799;SHT30;54596;43.216;27.904;2023-07-24T06:03:22;35.81;55.55
67799;SHT30;54596;43.216;27.904;2023-07-24T06:05:54;36.24;54.64
67799;SHT30;54596;43.216;27.904;2023-07-24T06:08:20;36.84;53.42
67799;SHT30;54596;43.216;27.904;2023-07-24T06:10:50;36.63;53.91
67799;SHT30;54596;43.216;27.904;2023-07-24T06:13:16;37.12;52.57
67799;SHT30;54596;43.216;27.904;2023-07-24T06:15:42;37.53;51.69
67799;SHT30;54596;43.216;27.904;2023-07-24T06:18:07;37.82;51.32
67799;SHT30;54596;43.216;27.904;2023-07-24T06:20:33;38.13;50.97
67799;SHT30;54596;43.216;27.904;2023-07-24T06:22:58;38.22;50.77
67799;SHT30;54596;43.216;27.904;2023-07-24T06:25:24;38.37;50.42
67799;SHT30;54596;43.216;27.904;2023-07-24T06:27:49;38.23;50.41
67799;SHT30;54596;43.216;27.904;2023-07-24T06:30:15;38.09;50.67
67799;SHT30;54596;43.216;27.904;2023-07-24T06:32:40;38.01;50.84
67799;SHT30;54596;43.216;27.904;2023-07-24T06:35:06;38.34;50.31
67799;SHT30;54596;43.216;27.904;2023-07-24T06:37:32;38.32;50.25
67799;SHT30;54596;43.216;27.904;2023-07-24T06:39:57;38.22;50.08
67799;SHT30;54596;43.216;27.904;2023-07-24T06:42:23;38.33;49.79
67799;SHT30;54596;43.216;27.904;2023-07-24T06:44:48;38.33;49.89
67799;SHT30;54596;43.216;27.904;2023-07-24T06:47:13;38.34;49.05
67799;SHT30;54596;43.216;27.904;2023-07-24T06:49:39;38.36;48.96
67799;SHT30;54596;43.216;27.904;2023-07-24T06:52:05;38.11;49.29
67799;SHT30;54596;43.216;27.904;2023-07-24T06:54:30;38.44;45.54
67799;SHT30;54596;43.216;27.904;2023-07-24T06:56:56;38.70;45.51
67799;SHT30;54596;43.216;27.904;2023-07-24T06:59:21;38.75;44.52
67799;SHT30;54596;43.216;27.904;2023-07-24T07:01:46;38.90;43.38
67799;SHT30;54596;43.216;27.904;2023-07-24T07:04:12;38.61;41.75
67799;SHT30;54596;43.216;27.904;2023-07-24T07:06:37;38.23;41.94
67799;SHT30;54596;43.216;27.904;2023-07-24T07:09:03;38.17;42.15
67799;SHT30;54596;43.216;27.904;2023-07-24T07:11:29;39.37;41.07
67799;SHT30;54596;43.216;27.904;2023-07-24T07:13:55;39.53;42.19
67799;SHT30;54596;43.216;27.904;2023-07-24T07:16:20;39.42;42.20
67799;SHT30;54596;43.216;27.904;2023-07-24T07:18:46;38.02;44.66
67799;SHT30;54596;43.216;27.904;2023-07-24T07:21:11;39.35;42.32
67799;SHT30;54596;43.216;27.904;2023-07-24T07:23:37;40.06;41.05
67799;SHT30;54596;43.216;27.904;2023-07-24T07:26:02;40.42;40.84
67799;SHT30;54596;43.216;27.904;2023-07-24T07:28:28;40.12;41.19
67799;SHT30;54596;43.216;27.904;2023-07-24T07:30:54;39.77;42.07
67799;SHT30;54596;43.216;27.904;2023-07-24T07:33:19;40.15;42.19
67799;SHT30;54596;43.216;27.904;2023-07-24T07:35:47;39.60;41.84
67799;SHT30;54596;43.216;27.904;2023-07-24T07:38:12;38.92;44.01
67799;SHT30;54596;43.216;27.904;2023-07-24T07:40:38;39.16;44.85
67799;SHT30;54596;43.216;27.904;2023-07-24T07:43:07;39.06;44.66
67799;SHT30;54596;43.216;27.904;2023-07-24T07:45:32;38.68;45.80
67799;SHT30;54596;43.216;27.904;2023-07-24T07:47:58;39.08;45.57
67799;SHT30;54596;43.216;27.904;2023-07-24T07:50:24;37.50;48.64
67799;SHT30;54596;43.216;27.904;2023-07-24T07:52:50;37.06;50.27
67799;SHT30;54596;43.216;27.904;2023-07-24T07:55:17;37.31;49.77
67799;SHT30;54596;43.216;27.904;2023-07-24T07:57:42;37.09;47.89
67799;SHT30;54596;43.216;27.904;2023-07-24T08:00:08;37.20;47.29
67799;SHT30;54596;43.216;27.904;2023-07-24T08:02:34;37.78;46.68
67799;SHT30;54596;43.216;27.904;2023-07-24T08:05:00;37.16;48.68
67799;SHT30;54596;43.216;27.904;2023-07-24T08:07:25;37.16;50.13
67799;SHT30;54596;43.216;27.904;2023-07-24T08:09:51;36.57;50.51
67799;SHT30;54596;43.216;27.904;2023-07-24T08:12:16;35.70;48.96
67799;SHT30;54596;43.216;27.904;2023-07-24T08:14:42;35.80;49.63
67799;SHT30;54596;43.216;27.904;2023-07-24T08:17:07;36.88;50.54
67799;SHT30;54596;43.216;27.904;2023-07-24T08:19:33;36.95;46.73
67799;SHT30;54596;43.216;27.904;2023-07-24T08:21:58;36.09;48.49
67799;SHT30;54596;43.216;27.904;2023-07-24T08:24:24;35.75;51.47
67799;SHT30;54596;43.216;27.904;2023-07-24T08:26:49;34.72;49.08
67799;SHT30;54596;43.216;27.904;2023-07-24T08:29:15;35.54;51.16
67799;SHT30;54596;43.216;27.904;2023-07-24T08:31:40;33.30;51.35
67799;SHT30;54596;43.216;27.904;2023-07-24T08:34:06;32.65;54.75
67799;SHT30;54596;43.216;27.904;2023-07-24T08:36:31;31.37;56.83
67799;SHT30;54596;43.216;27.904;2023-07-24T08:38:57;32.40;54.79
67799;SHT30;54596;43.216;27.904;2023-07-24T08:41:22;31.38;56.25
67799;SHT30;54596;43.216;27.904;2023-07-24T08:43:48;31.14;55.83
67799;SHT30;54596;43.216;27.904;2023-07-24T08:46:17;31.28;55.96
67799;SHT30;54596;43.216;27.904;2023-07-24T08:48:43;31.28;54.65
67799;SHT30;54596;43.216;27.904;2023-07-24T08:51:14;30.80;54.81
67799;SHT30;54596;43.216;27.904;2023-07-24T08:53:42;30.21;59.63
67799;SHT30;54596;43.216;27.904;2023-07-24T08:56:09;30.55;60.00
67799;SHT30;54596;43.216;27.904;2023-07-24T08:58:35;30.61;60.87
67799;SHT30;54596;43.216;27.904;2023-07-24T09:01:03;29.73;63.12
67799;SHT30;54596;43.216;27.904;2023-07-24T09:03:30;29.43;63.76
67799;SHT30;54596;43.216;27.904;2023-07-24T09:05:56;28.91;64.54
67799;SHT30;54596;43.216;27.904;2023-07-24T09:08:32;29.04;65.19
67799;SHT30;54596;43.216;27.904;2023-07-24T09:10:58;29.11;64.76
67799;SHT30;54596;43.216;27.904;2023-07-24T09:13:24;28.69;66.22
67799;SHT30;54596;43.216;27.904;2023-07-24T09:15:50;28.48;66.87
67799;SHT30;54596;43.216;27.904;2023-07-24T09:18:15;28.47;67.28
67799;SHT30;54596;43.216;27.904;2023-07-24T09:20:43;28.38;67.62
67799;SHT30;54596;43.216;27.904;2023-07-24T09:23:10;27.92;69.74
67799;SHT30;54596;43.216;27.904;2023-07-24T09:25:38;27.66;68.43
67799;SHT30;54596;43.216;27.904;2023-07-24T09:28:15;27.71;68.54
67799;SHT30;54596;43.216;27.904;2023-07-24T09:30:41;27.66;67.29
67799;SHT30;54596;43.216;27.904;2023-07-24T09:33:07;27.85;68.29
67799;SHT30;54596;43.216;27.904;2023-07-24T09:35:33;27.77;67.61
67799;SHT30;54596;43.216;27.904;2023-07-24T09:38:10;27.29;67.63
67799;SHT30;54596;43.216;27.904;2023-07-24T09:40:45;27.37;68.87
67799;SHT30;54596;43.216;27.904;2023-07-24T09:43:29;27.31;67.50
67799;SHT30;54596;43.216;27.904;2023-07-24T09:45:56;27.22;68.04
67799;SHT30;54596;43.216;27.904;2023-07-24T09:48:24;27.34;67.42
67799;SHT30;54596;43.216;27.904;2023-07-24T09:50:53;27.57;68.19
67799;SHT30;54596;43.216;27.904;2023-07-24T09:55:57;27.37;66.79
67799;SHT30;54596;43.216;27.904;2023-07-24T09:58:24;27.18;67.09
67799;SHT30;54596;43.216;27.904;2023-07-24T10:00:51;27.23;67.52
67799;SHT30;54596;43.216;27.904;2023-07-24T10:03:17;27.31;69.51
67799;SHT30;54596;43.216;27.904;2023-07-24T10:05:44;27.29;68.46
67799;SHT30;54596;43.216;27.904;2023-07-24T10:08:10;27.16;69.93
67799;SHT30;54596;43.216;27.904;2023-07-24T10:10:38;27.02;71.51
67799;SHT30;54596;43.216;27.904;2023-07-24T10:13:04;26.88;70.37
67799;SHT30;54596;43.216;27.904;2023-07-24T10:15:29;26.65;73.12
67799;SHT30;54596;43.216;27.904;2023-07-24T10:18:06;26.62;72.35
67799;SHT30;54596;43.216;27.904;2023-07-24T10:20:38;26.54;73.93
67799;SHT30;54596;43.216;27.904;2023-07-24T10:23:09;26.67;74.19
67799;SHT30;54596;43.216;27.904;2023-07-24T10:25:39;26.71;74.43
67799;SHT30;54596;43.216;27.904;2023-07-24T10:28:11;26.65;75.11
67799;SHT30;54596;43.216;27.904;2023-07-24T10:30:37;26.86;73.87
67799;SHT30;54596;43.216;27.904;2023-07-24T10:33:11;26.71;74.54
67799;SHT30;54596;43.216;27.904;2023-07-24T10:35:41;26.71;75.63
67799;SHT30;54596;43.216;27.904;2023-07-24T10:38:08;26.82;75.84
67799;SHT30;54596;43.216;27.904;2023-07-24T10:40:33;26.96;75.71
67799;SHT30;54596;43.216;27.904;2023-07-24T10:43:09;27.10;74.87
67799;SHT30;54596;43.216;27.904;2023-07-24T10:48:11;26.86;75.72
67799;SHT30;54596;43.216;27.904;2023-07-24T10:50:38;26.61;75.83
67799;SHT30;54596;43.216;27.904;2023-07-24T10:53:04;26.43;77.11
67799;SHT30;54596;43.216;27.904;2023-07-24T10:55:29;26.38;77.51
67799;SHT30;54596;43.216;27.904;2023-07-24T10:57:55;26.37;76.89
67799;SHT30;54596;43.216;27.904;2023-07-24T11:00:20;26.41;77.73
67799;SHT30;54596;43.216;27.904;2023-07-24T11:02:46;26.48;78.18
67799;SHT30;54596;43.216;27.904;2023-07-24T11:05:12;26.36;78.74
67799;SHT30;54596;43.216;27.904;2023-07-24T11:07:39;26.47;78.17
67799;SHT30;54596;43.216;27.904;2023-07-24T11:10:17;26.62;78.23
67799;SHT30;54596;43.216;27.904;2023-07-24T11:12:42;26.88;78.01
67799;SHT30;54596;43.216;27.904;2023-07-24T11:15:09;27.03;77.57
67799;SHT30;54596;43.216;27.904;2023-07-24T11:17:36;26.98;77.79
67799;SHT30;54596;43.216;27.904;2023-07-24T11:22:35;26.74;78.99
67799;SHT30;54596;43.216;27.904;2023-07-24T11:25:00;26.61;79.22
67799;SHT30;54596;43.216;27.904;2023-07-24T11:27:30;26.61;79.10
67799;SHT30;54596;43.216;27.904;2023-07-24T11:29:55;26.96;78.09
67799;SHT30;54596;43.216;27.904;2023-07-24T11:32:21;26.93;77.23
67799;SHT30;54596;43.216;27.904;2023-07-24T11:34:51;26.76;78.34
67799;SHT30;54596;43.216;27.904;2023-07-24T11:37:17;26.74;78.45
67799;SHT30;54596;43.216;27.904;2023-07-24T11:39:57;26.57;79.75
67799;SHT30;54596;43.216;27.904;2023-07-24T11:42:27;26.55;79.31
67799;SHT30;54596;43.216;27.904;2023-07-24T11:44:53;26.67;79.53
67799;SHT30;54596;43.216;27.904;2023-07-24T11:47:19;26.89;78.98
67799;SHT30;54596;43.216;27.904;2023-07-24T11:49:44;26.92;78.55
67799;SHT30;54596;43.216;27.904;2023-07-24T11:52:13;26.95;78.71
67799;SHT30;54596;43.216;27.904;2023-07-24T11:54:39;26.83;78.62
67799;SHT30;54596;43.216;27.904;2023-07-24T11:57:24;26.61;79.33
67799;SHT30;54596;43.216;27.904;2023-07-24T11:59:50;26.48;79.52
67799;SHT30;54596;43.216;27.904;2023-07-24T12:02:15;26.47;80.24
67799;SHT30;54596;43.216;27.904;2023-07-24T12:04:41;26.49;79.54
67799;SHT30;54596;43.216;27.904;2023-07-24T12:07:09;26.58;79.45
67799;SHT30;54596;43.216;27.904;2023-07-24T12:09:35;26.68;79.22
67799;SHT30;54596;43.216;27.904;2023-07-24T12:12:03;26.85;79.52
67799;SHT30;54596;43.216;27.904;2023-07-24T12:14:30;26.88;78.99
67799;SHT30;54596;43.216;27.904;2023-07-24T12:17:02;26.68;79.26
67799;SHT30;54596;43.216;27.904;2023-07-24T12:19:28;26.69;79.01
67799;SHT30;54596;43.216;27.904;2023-07-24T12:21:54;26.81;78.92
67799;SHT30;54596;43.216;27.904;2023-07-24T12:24:19;26.68;78.81
67799;SHT30;54596;43.216;27.904;2023-07-24T12:26:45;26.72;79.50
67799;SHT30;54596;43.216;27.904;2023-07-24T12:29:10;26.91;79.66
67799;SHT30;54596;43.216;27.904;2023-07-24T12:31:36;26.47;79.73
67799;SHT30;54596;43.216;27.904;2023-07-24T12:34:01;26.45;79.99
67799;SHT30;54596;43.216;27.904;2023-07-24T12:36:27;26.49;79.26
67799;SHT30;54596;43.216;27.904;2023-07-24T12:38:52;26.72;79.35
67799;SHT30;54596;43.216;27.904;2023-07-24T12:41:19;26.59;78.12
67799;SHT30;54596;43.216;27.904;2023-07-24T12:43:44;26.55;79.28
67799;SHT30;54596;43.216;27.904;2023-07-24T12:46:10;26.67;78.80
67799;SHT30;54596;43.216;27.904;2023-07-24T12:48:35;26.65;77.69
67799;SHT30;54596;43.216;27.904;2023-07-24T12:51:01;26.79;78.13
67799;SHT30;54596;43.216;27.904;2023-07-24T12:53:27;26.52;78.20
67799;SHT30;54596;43.216;27.904;2023-07-24T12:55:53;26.43;78.58
67799;SHT30;54596;43.216;27.904;2023-07-24T12:58:18;26.59;78.62
67799;SHT30;54596;43.216;27.904;2023-07-24T13:00:44;26.81;78.13
67799;SHT30;54596;43.216;27.904;2023-07-24T13:03:09;26.74;78.08
67799;SHT30;54596;43.216;27.904;2023-07-24T13:05:35;26.74;77.91
67799;SHT30;54596;43.216;27.904;2023-07-24T13:08:00;26.71;78.37
67799;SHT30;54596;43.216;27.904;2023-07-24T13:10:25;26.58;78.48
67799;SHT30;54596;43.216;27.904;2023-07-24T13:12:51;26.82;77.91
67799;SHT30;54596;43.216;27.904;2023-07-24T13:15:16;26.69;77.43
67799;SHT30;54596;43.216;27.904;2023-07-24T13:17:42;26.81;77.77
67799;SHT30;54596;43.216;27.904;2023-07-24T13:20:08;26.89;77.42
67799;SHT30;54596;43.216;27.904;2023-07-24T13:22:33;26.79;77.33
67799;SHT30;54596;43.216;27.904;2023-07-24T13:24:59;26.78;77.23
67799;SHT30;54596;43.216;27.904;2023-07-24T13:27:24;26.64;77.45
67799;SHT30;54596;43.216;27.904;2023-07-24T13:29:50;26.68;77.69
67799;SHT30;54596;43.216;27.904;2023-07-24T13:32:15;26.67;77.79
67799;SHT30;54596;43.216;27.904;2023-07-24T13:34:41;26.74;77.30
67799;SHT30;54596;43.216;27.904;2023-07-24T13:37:06;26.81;77.37
67799;SHT30;54596;43.216;27.904;2023-07-24T13:39:32;26.86;76.58
67799;SHT30;54596;43.216;27.904;2023-07-24T13:41:59;26.91;76.08
67799;SHT30;54596;43.216;27.904;2023-07-24T13:44:25;26.95;76.00
67799;SHT30;54596;43.216;27.904;2023-07-24T13:46:50;26.98;76.01
67799;SHT30;54596;43.216;27.904;2023-07-24T13:49:16;26.89;75.86
67799;SHT30;54596;43.216;27.904;2023-07-24T13:51:43;26.86;76.54
67799;SHT30;54596;43.216;27.904;2023-07-24T13:54:09;26.79;76.86
67799;SHT30;54596;43.216;27.904;2023-07-24T13:56:34;26.85;76.93
67799;SHT30;54596;43.216;27.904;2023-07-24T13:59:01;26.82;77.24
67799;SHT30;54596;43.216;27.904;2023-07-24T14:01:26;26.88;77.06
67799;SHT30;54596;43.216;27.904;2023-07-24T14:03:52;26.64;77.75
67799;SHT30;54596;43.216;27.904;2023-07-24T14:06:17;26.64;77.59
67799;SHT30;54596;43.216;27.904;2023-07-24T14:08:43;26.74;77.37
67799;SHT30;54596;43.216;27.904;2023-07-24T14:11:08;26.62;76.62
67799;SHT30;54596;43.216;27.904;2023-07-24T14:13:34;26.69;76.84
67799;SHT30;54596;43.216;27.904;2023-07-24T14:15:59;26.85;76.73
67799;SHT30;54596;43.216;27.904;2023-07-24T14:18:25;26.71;76.97
67799;SHT30;54596;43.216;27.904;2023-07-24T14:20:50;26.72;77.56
67799;SHT30;54596;43.216;27.904;2023-07-24T14:23:19;26.81;77.60
67799;SHT30;54596;43.216;27.904;2023-07-24T14:25:45;26.74;77.60
67799;SHT30;54596;43.216;27.904;2023-07-24T14:28:10;26.74;77.48
67799;SHT30;54596;43.216;27.904;2023-07-24T14:30:36;26.72;77.26
67799;SHT30;54596;43.216;27.904;2023-07-24T14:33:01;26.69;77.06
67799;SHT30;54596;43.216;27.904;2023-07-24T14:35:27;26.78;76.70
67799;SHT30;54596;43.216;27.904;2023-07-24T14:37:52;26.76;77.20
67799;SHT30;54596;43.216;27.904;2023-07-24T14:40:18;26.79;77.02
67799;SHT30;54596;43.216;27.904;2023-07-24T14:42:43;26.74;77.78
67799;SHT30;54596;43.216;27.904;2023-07-24T14:45:09;26.81;77.52
67799;SHT30;54596;43.216;27.904;2023-07-24T14:47:35;26.79;77.47
67799;SHT30;54596;43.216;27.904;2023-07-24T14:50:00;26.75;77.32
67799;SHT30;54596;43.216;27.904;2023-07-24T14:52:26;26.68;77.74
67799;SHT30;54596;43.216;27.904;2023-07-24T14:54:51;26.58;77.73
67799;SHT30;54596;43.216;27.904;2023-07-24T14:57:17;26.58;77.97
67799;SHT30;54596;43.216;27.904;2023-07-24T14:59:42;26.61;77.55
67799;SHT30;54596;43.216;27.904;2023-07-24T15:02:07;26.52;77.85
67799;SHT30;54596;43.216;27.904;2023-07-24T15:04:33;26.58;77.87
67799;SHT30;54596;43.216;27.904;2023-07-24T15:06:59;26.57;77.94
67799;SHT30;54596;43.216;27.904;2023-07-24T15:09:24;26.75;76.79
67799;SHT30;54596;43.216;27.904;2023-07-24T15:11:50;26.75;76.91
67799;SHT30;54596;43.216;27.904;2023-07-24T15:14:15;26.67;77.45
67799;SHT30;54596;43.216;27.904;2023-07-24T15:16:40;26.72;77.48
67799;SHT30;54596;43.216;27.904;2023-07-24T15:19:06;26.57;78.12
67799;SHT30;54596;43.216;27.904;2023-07-24T15:21:32;26.67;77.70